createdAt,value
2023-05-09T00:00:03.225Z,10.82
2023-05-09T00:02:34.551Z,10.35
2023-05-09T00:05:03.920Z,11.00
2023-05-09T00:07:31.563Z,9.15
2023-05-09T00:09:58.583Z,10.75
2023-05-09T00:12:25.239Z,9.80
2023-05-09T00:14:51.842Z,11.00
2023-05-09T00:17:18.565Z,10.63
2023-05-09T00:19:45.321Z,11.63
2023-05-09T00:22:12.957Z,11.45
2023-05-09T00:24:39.507Z,11.63
2023-05-09T00:27:06.054Z,11.30
2023-05-09T00:29:32.630Z,12.15
2023-05-09T00:31:59.219Z,11.20
2023-05-09T00:34:25.967Z,11.13
2023-05-09T00:36:52.535Z,10.68
2023-05-09T00:39:19.120Z,9.93
2023-05-09T00:41:45.893Z,10.20
2023-05-09T00:44:12.480Z,9.82
2023-05-09T00:46:39.990Z,8.88
2023-05-09T00:49:06.766Z,8.25
2023-05-09T00:51:33.368Z,9.18
2023-05-09T00:53:59.975Z,8.50
2023-05-09T00:56:26.978Z,7.85
2023-05-09T00:58:53.603Z,7.10
2023-05-09T01:01:20.563Z,7.07
2023-05-09T01:03:47.485Z,8.27
2023-05-09T01:06:24.195Z,6.35
2023-05-09T01:09:08.236Z,7.25
2023-05-09T01:11:39.650Z,5.57
2023-05-09T01:14:18.241Z,6.82
2023-05-09T01:16:50.180Z,5.78
2023-05-09T01:19:34.768Z,5.60
2023-05-09T01:22:04.131Z,5.68
2023-05-09T01:24:52.683Z,5.57
2023-05-09T01:27:50.787Z,5.45
2023-05-09T01:30:17.923Z,6.18
2023-05-09T01:32:46.529Z,6.03
2023-05-09T01:35:14.557Z,7.90
2023-05-09T01:37:43.517Z,7.18
2023-05-09T01:40:21.352Z,6.80
2023-05-09T01:42:52.521Z,6.40
2023-05-09T01:45:19.937Z,5.65
2023-05-09T01:47:48.030Z,7.53
2023-05-09T01:50:17.333Z,8.10
2023-05-09T01:52:44.540Z,8.48
2023-05-09T01:55:11.280Z,7.60
2023-05-09T01:57:39.106Z,6.43
2023-05-09T02:00:08.063Z,7.88
2023-05-09T02:02:40.101Z,8.30
2023-05-09T02:05:08.967Z,9.27
2023-05-09T02:07:36.377Z,9.65
2023-05-09T02:10:03.910Z,8.82
2023-05-09T02:12:30.623Z,9.90
2023-05-09T02:14:57.255Z,10.32
2023-05-09T02:17:24.047Z,8.82
2023-05-09T02:19:50.637Z,7.40
2023-05-09T02:22:17.246Z,7.85
2023-05-09T02:24:47.235Z,7.60
2023-05-09T02:27:14.470Z,7.88
2023-05-09T02:29:47.755Z,8.75
2023-05-09T02:32:17.178Z,6.75
2023-05-09T02:34:44.100Z,6.05
2023-05-09T02:37:11.039Z,7.10
2023-05-09T02:39:37.621Z,8.13
2023-05-09T02:42:09.294Z,6.78
2023-05-09T02:44:36.288Z,7.28
2023-05-09T02:47:03.563Z,7.50
2023-05-09T02:49:32.390Z,8.45
2023-05-09T02:52:00.693Z,4.60
2023-05-09T02:54:27.414Z,4.30
2023-05-09T02:56:54.078Z,7.90
2023-05-09T02:59:20.795Z,6.07
2023-05-09T03:01:47.683Z,6.80
2023-05-09T03:04:16.499Z,5.55
2023-05-09T03:06:43.099Z,4.65
2023-05-09T03:09:09.788Z,5.30
2023-05-09T03:11:39.374Z,4.63
2023-05-09T03:14:08.278Z,6.18
2023-05-09T03:16:34.952Z,6.43
2023-05-09T03:19:01.633Z,6.90
2023-05-09T03:21:28.783Z,9.15
2023-05-09T03:23:55.985Z,13.10
2023-05-09T03:26:23.200Z,12.50
2023-05-09T03:28:49.862Z,13.43
2023-05-09T03:31:16.489Z,13.45
2023-05-09T03:33:43.257Z,12.43
2023-05-09T03:36:10.075Z,12.82
2023-05-09T03:38:39.476Z,12.88
2023-05-09T03:41:06.178Z,14.93
2023-05-09T03:43:33.217Z,13.20
2023-05-09T03:45:59.789Z,11.82
2023-05-09T03:48:27.075Z,12.88
2023-05-09T03:50:53.920Z,11.95
2023-05-09T03:53:22.215Z,12.05
2023-05-09T03:55:50.412Z,12.10
2023-05-09T03:58:19.311Z,11.55
2023-05-09T04:00:46.066Z,11.85
2023-05-09T04:03:19.260Z,13.43
2023-05-09T04:05:47.618Z,13.23
2023-05-09T04:08:24.641Z,12.68
2023-05-09T04:10:52.332Z,12.27
2023-05-09T04:13:19.038Z,12.35
2023-05-09T04:15:46.303Z,12.63
2023-05-09T04:18:13.085Z,15.52
2023-05-09T04:20:39.655Z,16.92
2023-05-09T04:23:06.507Z,15.45
2023-05-09T04:25:34.491Z,14.82
2023-05-09T04:28:02.454Z,13.38
2023-05-09T04:30:29.587Z,12.27
2023-05-09T04:32:57.744Z,12.68
2023-05-09T04:35:26.694Z,12.65
2023-05-09T04:37:53.914Z,12.05
2023-05-09T04:40:20.525Z,12.48
2023-05-09T04:42:57.417Z,12.57
2023-05-09T04:45:27.732Z,12.40
2023-05-09T04:47:55.237Z,12.75
2023-05-09T04:50:21.891Z,13.93
2023-05-09T04:52:48.450Z,12.27
2023-05-09T04:55:15.479Z,11.73
2023-05-09T04:57:45.787Z,12.55
2023-05-09T05:00:13.034Z,12.82
2023-05-09T05:02:40.577Z,12.70
2023-05-09T05:05:11.958Z,13.10
2023-05-09T05:07:41.100Z,12.88
2023-05-09T05:10:08.671Z,10.93
2023-05-09T05:12:36.712Z,13.35
2023-05-09T05:15:07.249Z,10.98
2023-05-09T05:17:34.034Z,10.88
2023-05-09T05:20:05.248Z,12.13
2023-05-09T05:22:32.847Z,10.20
2023-05-09T05:24:59.684Z,11.77
2023-05-09T05:27:26.332Z,10.73
2023-05-09T05:29:53.584Z,9.85
2023-05-09T05:32:20.595Z,9.90
2023-05-09T05:34:47.226Z,9.15
2023-05-09T05:37:14.513Z,11.27
2023-05-09T05:39:41.924Z,10.25
2023-05-09T05:42:09.029Z,12.10
2023-05-09T05:44:35.931Z,12.27
2023-05-09T05:47:02.601Z,11.85
2023-05-09T05:49:29.185Z,11.82
2023-05-09T05:51:56.299Z,13.27
2023-05-09T05:54:22.916Z,13.80
2023-05-09T05:56:49.459Z,13.02
2023-05-09T05:59:16.280Z,11.77
2023-05-09T06:01:43.326Z,11.88
2023-05-09T06:04:10.349Z,9.75
2023-05-09T06:06:37.120Z,11.25
2023-05-09T06:09:03.705Z,9.77
2023-05-09T06:11:30.266Z,9.00
2023-05-09T06:13:57.744Z,9.18
2023-05-09T06:16:24.433Z,7.88
2023-05-09T06:18:52.138Z,9.70
2023-05-09T06:21:21.298Z,9.13
2023-05-09T06:24:05.778Z,9.70
2023-05-09T06:26:34.516Z,8.02
2023-05-09T06:29:01.453Z,10.55
2023-05-09T06:31:28.081Z,9.70
2023-05-09T06:33:54.650Z,8.77
2023-05-09T06:36:21.273Z,10.18
2023-05-09T06:38:48.094Z,9.82
2023-05-09T06:41:14.778Z,10.27
2023-05-09T06:43:41.381Z,11.30
2023-05-09T06:46:08.047Z,9.93
2023-05-09T06:48:34.685Z,9.13
2023-05-09T06:51:01.348Z,10.07
2023-05-09T06:53:27.908Z,9.07
2023-05-09T06:55:54.490Z,9.20
2023-05-09T06:58:21.163Z,9.48
2023-05-09T07:00:47.952Z,8.65
2023-05-09T07:03:14.522Z,9.63
2023-05-09T07:05:41.138Z,8.38
2023-05-09T07:08:07.705Z,8.77
2023-05-09T07:10:34.326Z,8.63
2023-05-09T07:13:00.939Z,8.82
2023-05-09T07:15:40.358Z,8.45
2023-05-09T07:18:08.440Z,9.27
2023-05-09T07:20:35.163Z,8.35
2023-05-09T07:23:05.955Z,9.02
2023-05-09T07:25:32.670Z,8.02
2023-05-09T07:27:59.334Z,7.88
2023-05-09T07:30:26.077Z,7.68
2023-05-09T07:32:52.932Z,8.35
2023-05-09T07:35:19.798Z,10.30
2023-05-09T07:37:46.392Z,10.88
2023-05-09T07:40:13.479Z,8.98
2023-05-09T07:42:40.625Z,9.32
2023-05-09T07:45:07.579Z,8.23
2023-05-09T07:47:34.220Z,9.88
2023-05-09T07:50:00.850Z,8.77
2023-05-09T07:52:27.449Z,10.38
2023-05-09T07:54:54.567Z,10.48
2023-05-09T07:57:21.173Z,10.20
2023-05-09T07:59:47.755Z,8.02
2023-05-09T08:02:14.363Z,9.77
2023-05-09T08:04:41.735Z,9.70
2023-05-09T08:07:08.992Z,8.23
2023-05-09T08:09:35.874Z,8.25
2023-05-09T08:12:02.546Z,9.18
2023-05-09T08:14:29.733Z,9.30
2023-05-09T08:16:56.333Z,9.30
2023-05-09T08:19:25.903Z,8.80
2023-05-09T08:21:52.859Z,8.55
2023-05-09T08:24:20.147Z,7.35
2023-05-09T08:26:46.876Z,6.57
2023-05-09T08:29:13.465Z,6.97
2023-05-09T08:31:40.124Z,7.68
2023-05-09T08:34:06.716Z,6.85
2023-05-09T08:36:33.820Z,6.93
2023-05-09T08:39:00.409Z,6.10
2023-05-09T08:41:28.093Z,5.50
2023-05-09T08:43:55.705Z,6.03
2023-05-09T08:46:28.052Z,6.90
2023-05-09T08:48:54.939Z,7.57
2023-05-09T08:51:21.730Z,7.10
2023-05-09T08:53:48.423Z,6.88
2023-05-09T08:56:15.089Z,6.03
2023-05-09T08:58:42.005Z,6.25
2023-05-09T09:01:09.510Z,5.57
2023-05-09T09:03:37.356Z,5.80
2023-05-09T09:06:04.601Z,6.85
2023-05-09T09:08:31.151Z,6.38
2023-05-09T09:10:57.749Z,6.55
2023-05-09T09:13:24.401Z,6.45
2023-05-09T09:15:53.008Z,6.00
2023-05-09T09:18:22.778Z,6.00
2023-05-09T09:20:58.107Z,6.22
2023-05-09T09:23:25.876Z,5.25
2023-05-09T09:26:04.333Z,4.85
2023-05-09T09:28:31.113Z,6.20
2023-05-09T09:30:57.759Z,5.43
2023-05-09T09:33:26.254Z,5.00
2023-05-09T09:35:54.417Z,5.68
2023-05-09T09:38:22.072Z,5.07
2023-05-09T09:40:52.839Z,4.93
2023-05-09T09:43:19.497Z,5.13
2023-05-09T09:45:50.955Z,4.97
2023-05-09T09:48:17.631Z,4.57
2023-05-09T09:50:44.186Z,4.38
2023-05-09T09:53:12.370Z,4.95
2023-05-09T09:55:49.765Z,4.38
2023-05-09T09:58:18.117Z,4.32
2023-05-09T10:00:46.150Z,4.88
2023-05-09T10:03:16.933Z,4.38
2023-05-09T10:05:43.652Z,5.05
2023-05-09T10:08:10.638Z,5.18
2023-05-09T10:10:37.704Z,5.30
2023-05-09T10:13:10.137Z,4.88
2023-05-09T10:15:49.218Z,5.47
2023-05-09T10:18:24.240Z,5.80
2023-05-09T10:20:51.103Z,4.95
2023-05-09T10:23:18.207Z,5.60
2023-05-09T10:25:47.580Z,5.28
2023-05-09T10:28:18.492Z,5.32
2023-05-09T10:30:55.019Z,4.63
2023-05-09T10:33:24.908Z,5.05
2023-05-09T10:35:52.061Z,4.70
2023-05-09T10:38:18.725Z,5.13
2023-05-09T10:40:47.914Z,4.65
2023-05-09T10:43:14.489Z,5.85
2023-05-09T10:45:41.897Z,6.72
2023-05-09T10:48:09.290Z,6.13
2023-05-09T10:50:36.967Z,7.40
2023-05-09T10:53:13.972Z,5.97
2023-05-09T10:55:46.855Z,5.00
2023-05-09T10:58:37.349Z,5.28
2023-05-09T11:01:04.918Z,3.97
2023-05-09T11:03:55.715Z,3.50
2023-05-09T11:06:51.233Z,2.13
2023-05-09T11:09:41.217Z,2.58
2023-05-09T11:12:11.595Z,2.05
2023-05-09T11:14:48.873Z,2.10
2023-05-09T11:17:21.834Z,2.35
2023-05-09T11:19:49.025Z,2.42
2023-05-09T11:22:17.742Z,1.55
2023-05-09T11:24:51.854Z,2.08
2023-05-09T11:27:24.374Z,3.13
2023-05-09T11:29:52.114Z,3.08
2023-05-09T11:32:20.374Z,2.42
2023-05-09T11:34:47.202Z,3.00
2023-05-09T11:37:16.672Z,2.38
2023-05-09T11:40:00.654Z,2.40
2023-05-09T11:42:30.939Z,1.60
2023-05-09T11:44:58.627Z,1.60
2023-05-09T11:47:26.100Z,2.22
2023-05-09T11:49:52.742Z,2.03
2023-05-09T11:52:19.545Z,1.60
2023-05-09T11:54:46.110Z,1.67
2023-05-09T11:57:17.275Z,1.83
2023-05-09T12:02:11.901Z,2.00
2023-05-09T12:04:39.226Z,1.80
2023-05-09T12:07:06.262Z,1.90
2023-05-09T12:09:34.738Z,1.40
2023-05-09T12:12:01.629Z,1.30
2023-05-09T12:14:34.312Z,2.10
2023-05-09T12:17:01.742Z,2.28
2023-05-09T12:19:28.605Z,2.65
2023-05-09T12:21:59.198Z,2.58
2023-05-09T12:24:29.129Z,2.40
2023-05-09T12:26:56.605Z,2.78
2023-05-09T12:29:24.095Z,2.08
2023-05-09T12:31:51.083Z,2.33
2023-05-09T12:34:17.838Z,2.33
2023-05-09T12:36:50.787Z,1.83
2023-05-09T12:39:22.405Z,2.55
2023-05-09T12:42:00.534Z,2.83
2023-05-09T12:44:29.611Z,2.78
2023-05-09T12:46:58.263Z,2.45
2023-05-09T12:49:25.579Z,1.98
2023-05-09T12:51:53.578Z,2.58
2023-05-09T12:54:28.004Z,2.83
2023-05-09T12:56:56.928Z,2.60
2023-05-09T12:59:24.769Z,2.63
2023-05-09T13:01:53.652Z,2.85
2023-05-09T13:04:21.364Z,3.03
2023-05-09T13:06:49.516Z,3.13
2023-05-09T13:09:16.097Z,3.00
2023-05-09T13:11:42.701Z,2.42
2023-05-09T13:14:09.318Z,3.40
2023-05-09T13:16:36.164Z,3.35
2023-05-09T13:19:02.757Z,3.58
2023-05-09T13:21:29.330Z,2.95
2023-05-09T13:23:55.876Z,4.05
2023-05-09T13:26:22.709Z,3.13
2023-05-09T13:28:49.324Z,3.42
2023-05-09T13:31:16.072Z,3.50
2023-05-09T13:33:42.810Z,3.53
2023-05-09T13:36:09.424Z,3.70
2023-05-09T13:38:38.859Z,3.45
2023-05-09T13:41:05.969Z,2.90
2023-05-09T13:43:32.522Z,3.75
2023-05-09T13:45:59.125Z,3.55
2023-05-09T13:48:25.942Z,2.97
2023-05-09T13:50:52.491Z,3.75
2023-05-09T13:53:19.430Z,3.35
2023-05-09T13:55:46.298Z,3.00
2023-05-09T13:58:12.918Z,3.30
2023-05-09T14:00:39.470Z,3.33
2023-05-09T14:03:06.113Z,2.72
2023-05-09T14:05:33.062Z,4.03
2023-05-09T14:07:59.614Z,3.90
2023-05-09T14:10:27.060Z,5.10
2023-05-09T14:12:54.103Z,3.28
2023-05-09T14:15:20.826Z,3.40
2023-05-09T14:17:47.609Z,3.50
2023-05-09T14:20:16.061Z,3.35
2023-05-09T14:22:43.073Z,3.15
2023-05-09T14:25:09.806Z,3.28
2023-05-09T14:27:37.104Z,3.63
2023-05-09T14:30:04.409Z,3.53
2023-05-09T14:32:30.985Z,2.78
2023-05-09T14:34:57.568Z,3.53
2023-05-09T14:37:24.137Z,3.35
2023-05-09T14:39:50.882Z,3.25
2023-05-09T14:42:18.311Z,2.90
2023-05-09T14:44:46.039Z,3.00
2023-05-09T14:47:12.949Z,2.97
2023-05-09T14:49:42.338Z,3.20
2023-05-09T14:52:10.494Z,3.88
2023-05-09T14:54:37.345Z,3.35
2023-05-09T14:57:05.315Z,3.72
2023-05-09T14:59:32.157Z,3.20
2023-05-09T15:01:59.057Z,3.20
2023-05-09T15:04:30.383Z,3.38
2023-05-09T15:06:58.654Z,3.67
2023-05-09T15:09:25.238Z,2.42
2023-05-09T15:11:52.993Z,3.22
2023-05-09T15:14:19.552Z,2.92
2023-05-09T15:16:46.498Z,3.42
2023-05-09T15:19:13.163Z,2.90
2023-05-09T15:21:39.759Z,2.63
2023-05-09T15:24:06.667Z,2.70
2023-05-09T15:26:33.301Z,2.88
2023-05-09T15:28:59.900Z,2.38
2023-05-09T15:31:26.679Z,2.67
2023-05-09T15:33:53.404Z,2.30
2023-05-09T15:36:20.016Z,2.90
2023-05-09T15:38:49.373Z,2.55
2023-05-09T15:41:16.300Z,3.00
2023-05-09T15:43:42.849Z,2.67
2023-05-09T15:46:09.638Z,2.70
2023-05-09T15:48:36.225Z,2.60
2023-05-09T15:51:03.937Z,2.38
2023-05-09T15:53:30.624Z,1.98
2023-05-09T15:55:57.217Z,2.20
2023-05-09T15:58:23.782Z,2.60
2023-05-09T16:00:50.859Z,2.50
2023-05-09T16:03:18.137Z,2.00
2023-05-09T16:05:45.027Z,1.48
2023-05-09T16:08:12.017Z,1.65
2023-05-09T16:10:38.675Z,1.88
2023-05-09T16:13:05.419Z,1.50
2023-05-09T16:15:32.189Z,1.60
2023-05-09T16:17:58.792Z,1.90
2023-05-09T16:20:25.346Z,2.25
2023-05-09T16:22:51.955Z,2.33
2023-05-09T16:25:18.536Z,2.80
2023-05-09T16:27:45.230Z,2.70
2023-05-09T16:30:12.235Z,2.42
2023-05-09T16:32:38.829Z,1.48
2023-05-09T16:35:06.235Z,1.80
2023-05-09T16:37:34.774Z,1.92
2023-05-09T16:40:02.217Z,1.63
2023-05-09T16:42:28.817Z,1.60
2023-05-09T16:44:55.919Z,2.00
2023-05-09T16:47:22.563Z,1.33
2023-05-09T16:49:49.213Z,1.88
2023-05-09T16:52:16.002Z,1.80
2023-05-09T16:54:42.568Z,2.03
2023-05-09T16:57:09.134Z,1.70
2023-05-09T16:59:37.161Z,1.90
2023-05-09T17:02:04.406Z,2.03
2023-05-09T17:04:31.396Z,1.80
2023-05-09T17:06:58.016Z,1.80
2023-05-09T17:09:24.655Z,2.05
2023-05-09T17:11:51.182Z,1.55
2023-05-09T17:14:17.791Z,1.92
2023-05-09T17:16:44.653Z,1.70
2023-05-09T17:19:11.285Z,1.55
2023-05-09T17:21:41.295Z,1.13
2023-05-09T17:24:09.338Z,1.50
2023-05-09T17:26:35.904Z,1.98
2023-05-09T17:29:03.833Z,1.67
2023-05-09T17:31:31.265Z,1.63
2023-05-09T17:33:57.965Z,1.73
2023-05-09T17:36:25.624Z,1.50
2023-05-09T17:38:52.296Z,1.35
2023-05-09T17:41:18.902Z,1.95
2023-05-09T17:43:45.560Z,1.40
2023-05-09T17:46:12.229Z,1.33
2023-05-09T17:48:38.808Z,1.67
2023-05-09T17:51:05.390Z,1.60
2023-05-09T17:53:32.356Z,1.30
2023-05-09T17:55:59.195Z,1.30
2023-05-09T17:58:27.546Z,1.48
2023-05-09T18:00:55.125Z,1.35
2023-05-09T18:03:21.840Z,1.33
2023-05-09T18:05:48.693Z,1.10
2023-05-09T18:08:15.258Z,1.13
2023-05-09T18:10:41.845Z,1.08
2023-05-09T18:13:08.460Z,1.60
2023-05-09T18:15:38.130Z,1.17
2023-05-09T18:18:06.228Z,1.27
2023-05-09T18:20:33.028Z,1.67
2023-05-09T18:22:59.892Z,1.52
2023-05-09T18:25:26.497Z,1.45
2023-05-09T18:27:53.059Z,1.30
2023-05-09T18:30:21.790Z,1.88
2023-05-09T18:32:48.474Z,1.23
2023-05-09T18:35:15.987Z,1.77
2023-05-09T18:37:42.537Z,1.50
2023-05-09T18:40:14.767Z,1.30
2023-05-09T18:42:41.952Z,1.40
2023-05-09T18:45:09.998Z,1.35
2023-05-09T18:47:37.352Z,1.63
2023-05-09T18:50:05.239Z,1.23
2023-05-09T18:52:32.306Z,1.67
2023-05-09T18:54:58.928Z,1.52
2023-05-09T18:57:26.035Z,1.27
2023-05-09T18:59:52.916Z,1.17
2023-05-09T19:02:20.593Z,1.20
2023-05-09T19:04:48.129Z,1.63
2023-05-09T19:07:15.069Z,1.77
2023-05-09T19:09:41.891Z,1.40
2023-05-09T19:12:09.772Z,2.70
2023-05-09T19:14:37.796Z,1.15
2023-05-09T19:17:05.811Z,1.20
2023-05-09T19:19:32.648Z,1.38
2023-05-09T19:22:00.573Z,1.40
2023-05-09T19:24:27.378Z,1.50
2023-05-09T19:26:53.956Z,1.58
2023-05-09T19:29:20.542Z,2.08
2023-05-09T19:31:47.111Z,1.60
2023-05-09T19:34:13.745Z,2.45
2023-05-09T19:36:40.390Z,2.72
2023-05-09T19:39:08.771Z,4.18
2023-05-09T19:41:35.471Z,3.72
2023-05-09T19:44:02.175Z,3.30
2023-05-09T19:46:28.819Z,3.80
2023-05-09T19:48:55.513Z,1.83
2023-05-09T19:51:22.099Z,1.70
2023-05-09T19:53:48.665Z,2.35
2023-05-09T19:56:15.282Z,2.20
2023-05-09T19:58:41.899Z,1.33
2023-05-09T20:01:08.508Z,2.20
2023-05-09T20:03:36.823Z,1.50
2023-05-09T20:06:03.624Z,1.67
2023-05-09T20:08:31.031Z,1.60
2023-05-09T20:10:57.706Z,1.98
2023-05-09T20:13:24.364Z,1.40
2023-05-09T20:15:51.131Z,1.50
2023-05-09T20:18:17.702Z,2.30
2023-05-09T20:20:44.335Z,2.17
2023-05-09T20:23:10.957Z,3.63
2023-05-09T20:25:37.528Z,3.45
2023-05-09T20:28:04.175Z,4.18
2023-05-09T20:30:30.725Z,3.97
2023-05-09T20:32:58.558Z,3.85
2023-05-09T20:35:25.461Z,2.25
2023-05-09T20:37:52.051Z,2.20
2023-05-09T20:40:18.713Z,2.20
2023-05-09T20:42:45.492Z,2.42
2023-05-09T20:45:13.032Z,2.60
2023-05-09T20:47:39.870Z,1.90
2023-05-09T20:50:07.082Z,1.67
2023-05-09T20:52:33.719Z,1.38
2023-05-09T20:55:00.283Z,1.50
2023-05-09T20:57:26.870Z,1.75
2023-05-09T20:59:53.427Z,1.70
2023-05-09T21:02:20.086Z,1.80
2023-05-09T21:04:46.701Z,1.55
2023-05-09T21:07:13.304Z,1.80
2023-05-09T21:09:39.929Z,1.60
2023-05-09T21:12:07.397Z,2.13
2023-05-09T21:14:34.823Z,2.53
2023-05-09T21:17:01.397Z,2.10
2023-05-09T21:19:28.205Z,2.28
2023-05-09T21:21:55.017Z,2.97
2023-05-09T21:24:21.626Z,3.53
2023-05-09T21:26:48.157Z,2.20
2023-05-09T21:29:14.711Z,1.35
2023-05-09T21:31:41.345Z,1.90
2023-05-09T21:34:10.299Z,1.65
2023-05-09T21:36:38.294Z,1.40
2023-05-09T21:39:08.924Z,1.20
2023-05-09T21:41:36.817Z,0.90
2023-05-09T21:44:03.916Z,1.27
2023-05-09T21:46:31.901Z,1.15
2023-05-09T21:48:59.107Z,1.00
2023-05-09T21:51:25.681Z,0.90
2023-05-09T21:53:52.237Z,1.20
2023-05-09T21:56:18.824Z,0.80
2023-05-09T21:58:45.585Z,0.80
2023-05-09T22:01:12.218Z,0.93
2023-05-09T22:03:38.852Z,0.70
2023-05-09T22:06:05.843Z,1.02
2023-05-09T22:08:32.428Z,0.75
2023-05-09T22:10:58.979Z,0.80
2023-05-09T22:13:26.804Z,1.10
2023-05-09T22:15:53.443Z,0.73
2023-05-09T22:18:19.998Z,0.65
2023-05-09T22:20:46.582Z,1.13
2023-05-09T22:23:13.174Z,1.83
2023-05-09T22:25:39.745Z,0.73
2023-05-09T22:28:06.350Z,1.10
2023-05-09T22:30:32.951Z,0.90
2023-05-09T22:33:00.039Z,1.08
2023-05-09T22:35:26.641Z,0.70
2023-05-09T22:37:53.189Z,1.00
2023-05-09T22:40:19.795Z,0.75
2023-05-09T22:42:46.744Z,0.70
2023-05-09T22:45:13.308Z,1.08
2023-05-09T22:47:39.900Z,0.77
2023-05-09T22:50:07.188Z,0.80
2023-05-09T22:52:33.747Z,1.00
2023-05-09T22:55:00.295Z,0.80
2023-05-09T22:57:26.904Z,0.90
2023-05-09T22:59:53.754Z,0.80
2023-05-09T23:02:21.055Z,0.75
2023-05-09T23:04:47.751Z,0.80
2023-05-09T23:07:15.142Z,0.63
2023-05-09T23:09:41.724Z,1.55
2023-05-09T23:12:10.293Z,0.80
2023-05-09T23:14:37.078Z,0.70
2023-05-09T23:17:03.633Z,1.00
2023-05-09T23:19:30.237Z,1.25
2023-05-09T23:21:58.918Z,0.50
2023-05-09T23:24:25.552Z,0.98
2023-05-09T23:26:53.381Z,0.73
2023-05-09T23:29:20.031Z,0.70
2023-05-09T23:31:46.976Z,0.68
2023-05-09T23:34:13.647Z,0.40
2023-05-09T23:36:40.279Z,0.50
2023-05-09T23:39:06.947Z,0.82
2023-05-09T23:41:33.510Z,0.30
2023-05-09T23:44:01.787Z,0.30
2023-05-09T23:46:28.470Z,0.50
2023-05-09T23:48:55.473Z,0.65
2023-05-09T23:51:22.545Z,0.40
2023-05-09T23:53:49.373Z,0.40
2023-05-09T23:56:15.999Z,0.52
2023-05-09T23:58:43.064Z,0.35
